Time,TemperatureF,DewpointF,PressureIn,WindDirection,WindDirectionDegrees,WindSpeedMPH,WindSpeedGustMPH,Humidity,HourlyPrecipIn,Conditions,Clouds,dailyrainin,SoftwareType,DateUTC
2013-02-23 00:00:00,37.4,36.4,30.07,SSW,204,0.0,0.0,96,0.00,,,0.00,WeatherCatV1.02B3,2013-02-23 05:00:00,
2013-02-23 00:05:00,37.3,34.6,30.07,SSW,204,0.0,0.0,90,0.00,,,0.00,WeatherCatV1.02B3,2013-02-23 05:05:00,
2013-02-23 00:07:00,37.2,34.5,30.07,SSW,204,0.0,0.0,90,0.00,,,0.00,WeatherCatV1.02B3,2013-02-23 05:07:00,
2013-02-23 00:10:00,37.2,34.5,30.07,ESE,123,0.0,0.0,90,0.00,,,0.00,WeatherCatV1.02B3,2013-02-23 05:10:00,
2013-02-23 00:15:00,37.2,34.5,30.07,ESE,123,0.0,0.0,90,0.00,,,0.00,WeatherCatV1.02B3,2013-02-23 05:15:00,
2013-02-23 00:20:00,37.2,34.5,30.06,ESE,122,0.0,0.0,90,0.00,,,0.00,WeatherCatV1.02B3,2013-02-23 05:20:00,
2013-02-23 00:25:00,37.2,34.5,30.06,ESE,122,0.0,0.0,90,0.00,,,0.00,WeatherCatV1.02B3,2013-02-23 05:25:00,
2013-02-23 00:30:00,37.4,34.7,30.06,South,191,3.0,3.0,90,0.00,,,0.00,WeatherCatV1.02B3,2013-02-23 05:30:00,
2013-02-23 00:33:00,37.4,34.7,30.06,South,191,0.0,0.0,90,0.00,,,0.00,WeatherCatV1.02B3,2013-02-23 05:33:00,
2013-02-23 00:38:00,37.4,34.7,30.06,ESE,123,0.0,0.0,90,0.00,,,0.00,WeatherCatV1.02B3,2013-02-23 05:38:00,
2013-02-23 00:43:00,37.3,34.6,30.06,ESE,123,0.0,0.0,90,0.00,,,0.00,WeatherCatV1.02B3,2013-02-23 05:43:00,
2013-02-23 00:48:00,37.2,34.5,30.06,ESE,123,0.0,0.0,90,0.00,,,0.01,WeatherCatV1.02B3,2013-02-23 05:48:00,
2013-02-23 00:53:00,37.3,34.6,30.06,ESE,122,0.0,0.0,90,0.00,,,0.01,WeatherCatV1.02B3,2013-02-23 05:53:00,
2013-02-23 00:58:00,37.3,34.6,30.06,ESE,123,0.0,0.0,90,0.00,,,0.01,WeatherCatV1.02B3,2013-02-23 05:58:00,
2013-02-23 01:03:00,37.3,34.6,30.06,ESE,123,0.0,1.0,90,0.00,,,0.01,WeatherCatV1.02B3,2013-02-23 06:03:00,
2013-02-23 01:08:00,37.3,34.6,30.05,ESE,123,0.0,0.0,90,0.00,,,0.01,WeatherCatV1.02B3,2013-02-23 06:08:00,
2013-02-23 01:13:00,37.2,34.5,30.06,ESE,122,1.0,1.0,90,0.00,,,0.01,WeatherCatV1.02B3,2013-02-23 06:13:00,
2013-02-23 01:18:00,37.2,34.5,30.05,ESE,123,0.0,0.0,90,0.00,,,0.01,WeatherCatV1.02B3,2013-02-23 06:18:00,
2013-02-23 01:23:00,37.3,34.6,30.05,ESE,123,0.0,0.0,90,0.00,,,0.01,WeatherCatV1.02B3,2013-02-23 06:23:00,
2013-02-23 01:28:00,37.4,34.7,30.05,ESE,116,0.0,1.0,90,0.00,,,0.01,WeatherCatV1.02B3,2013-02-23 06:28:00,
2013-02-23 01:33:00,37.5,34.8,30.05,ESE,116,0.0,0.0,90,0.00,,,0.01,WeatherCatV1.02B3,2013-02-23 06:33:00,
2013-02-23 01:39:00,37.4,34.7,30.05,ESE,116,0.0,0.0,90,0.00,,,0.01,WeatherCatV1.02B3,2013-02-23 06:39:00,
2013-02-23 01:44:00,37.2,34.5,30.05,ESE,115,0.0,0.0,90,0.00,,,0.01,WeatherCatV1.02B3,2013-02-23 06:44:00,
2013-02-23 01:49:00,37.1,34.4,30.05,ESE,115,0.0,0.0,90,0.00,,,0.01,WeatherCatV1.02B3,2013-02-23 06:49:00,
2013-02-23 01:54:00,37.1,34.4,30.05,ESE,115,0.0,0.0,90,0.00,,,0.01,WeatherCatV1.02B3,2013-02-23 06:54:00,
2013-02-23 01:59:00,37.1,34.4,30.05,ESE,115,0.0,0.0,90,0.00,,,0.01,WeatherCatV1.02B3,2013-02-23 06:59:00,
2013-02-23 02:04:00,37.1,34.4,30.04,ESE,116,0.0,0.0,90,0.00,,,0.01,WeatherCatV1.02B3,2013-02-23 07:04:00,
2013-02-23 02:10:00,37.0,34.3,30.04,ESE,116,0.0,0.0,90,0.00,,,0.01,WeatherCatV1.02B3,2013-02-23 07:10:00,
2013-02-23 02:15:00,37.0,34.3,30.05,ESE,116,0.0,0.0,90,0.00,,,0.01,WeatherCatV1.02B3,2013-02-23 07:15:00,
2013-02-23 02:20:00,37.0,34.3,30.04,ESE,116,0.0,1.0,90,0.00,,,0.01,WeatherCatV1.02B3,2013-02-23 07:20:00,
2013-02-23 02:25:00,37.0,34.3,30.04,ESE,116,0.0,0.0,90,0.00,,,0.01,WeatherCatV1.02B3,2013-02-23 07:25:00,
2013-02-23 02:30:00,37.0,34.3,30.04,ESE,116,0.0,0.0,90,0.00,,,0.01,WeatherCatV1.02B3,2013-02-23 07:30:00,
2013-02-23 02:35:00,37.1,34.4,30.03,East,92,1.0,2.0,90,0.00,,,0.01,WeatherCatV1.02B3,2013-02-23 07:35:00,
2013-02-23 02:40:00,37.1,34.4,30.03,SE,146,0.0,0.0,90,0.00,,,0.01,WeatherCatV1.02B3,2013-02-23 07:40:00,
2013-02-23 02:45:00,37.0,34.1,30.03,SE,146,0.0,2.0,89,0.00,,,0.01,WeatherCatV1.02B3,2013-02-23 07:45:00,
2013-02-23 02:50:00,37.1,34.2,30.03,SE,146,0.0,2.0,89,0.00,,,0.01,WeatherCatV1.02B3,2013-02-23 07:50:00,
2013-02-23 02:55:00,37.3,34.1,30.03,SW,219,2.0,3.0,88,0.00,,,0.01,WeatherCatV1.02B3,2013-02-23 07:55:00,
2013-02-23 03:00:00,37.5,34.0,30.03,SSW,213,0.0,0.0,87,0.00,,,0.01,WeatherCatV1.02B3,2013-02-23 08:00:00,
2013-02-23 03:05:00,37.6,33.8,30.03,SW,215,2.0,3.0,86,0.00,,,0.01,WeatherCatV1.02B3,2013-02-23 08:05:00,
2013-02-23 03:10:00,37.6,33.8,30.03,ESE,114,0.0,0.0,86,0.00,,,0.01,WeatherCatV1.02B3,2013-02-23 08:10:00,
2013-02-23 03:15:00,37.6,33.8,30.02,ESE,118,0.0,2.0,86,0.00,,,0.01,WeatherCatV1.02B3,2013-02-23 08:15:00,
2013-02-23 03:20:00,37.6,33.8,30.03,SE,132,0.0,0.0,86,0.00,,,0.01,WeatherCatV1.02B3,2013-02-23 08:20:00,
2013-02-23 03:25:00,37.5,33.4,30.02,SE,132,0.0,0.0,85,0.00,,,0.01,WeatherCatV1.02B3,2013-02-23 08:25:00,
2013-02-23 03:30:00,37.4,33.6,30.02,SE,132,0.0,0.0,86,0.00,,,0.01,WeatherCatV1.02B3,2013-02-23 08:30:00,
2013-02-23 03:35:00,37.4,33.6,30.02,SE,132,0.0,0.0,86,0.00,,,0.01,WeatherCatV1.02B3,2013-02-23 08:35:00,
2013-02-23 03:40:00,37.2,33.4,30.02,SE,132,0.0,0.0,86,0.00,,,0.01,WeatherCatV1.02B3,2013-02-23 08:40:00,
2013-02-23 03:45:00,37.2,33.4,30.02,SE,132,0.0,2.0,86,0.00,,,0.01,WeatherCatV1.02B3,2013-02-23 08:45:00,
2013-02-23 03:50:00,37.2,33.4,30.02,SE,132,0.0,0.0,86,0.00,,,0.01,WeatherCatV1.02B3,2013-02-23 08:50:00,
2013-02-23 03:55:00,37.2,33.4,30.02,SW,220,0.0,0.0,86,0.00,,,0.01,WeatherCatV1.02B3,2013-02-23 08:55:00,
2013-02-23 04:00:00,37.1,33.0,30.02,SW,220,0.0,0.0,85,0.00,,,0.01,WeatherCatV1.02B3,2013-02-23 09:00:00,
2013-02-23 04:05:00,37.0,32.9,30.02,SW,220,0.0,0.0,85,0.00,,,0.01,WeatherCatV1.02B3,2013-02-23 09:05:00,
2013-02-23 04:10:00,37.1,33.0,30.02,SW,220,0.0,0.0,85,0.00,,,0.01,WeatherCatV1.02B3,2013-02-23 09:10:00,
2013-02-23 04:15:00,37.1,33.0,30.01,SW,220,0.0,1.0,85,0.00,,,0.01,WeatherCatV1.02B3,2013-02-23 09:15:00,
2013-02-23 04:20:00,37.1,32.7,30.01,SW,219,0.0,0.0,84,0.00,,,0.01,WeatherCatV1.02B3,2013-02-23 09:20:00,
2013-02-23 04:25:00,37.0,32.6,30.01,SW,220,0.0,0.0,84,0.00,,,0.01,WeatherCatV1.02B3,2013-02-23 09:25:00,
2013-02-23 04:30:00,36.9,32.5,30.01,SW,220,0.0,0.0,84,0.00,,,0.01,WeatherCatV1.02B3,2013-02-23 09:30:00,
2013-02-23 04:35:00,36.9,32.5,30.01,SW,220,0.0,0.0,84,0.00,,,0.01,WeatherCatV1.02B3,2013-02-23 09:35:00,
2013-02-23 04:40:00,36.8,32.4,30.01,SW,220,0.0,0.0,84,0.00,,,0.01,WeatherCatV1.02B3,2013-02-23 09:40:00,
2013-02-23 04:45:00,36.7,32.3,30.01,SW,219,0.0,0.0,84,0.00,,,0.01,WeatherCatV1.02B3,2013-02-23 09:45:00,
2013-02-23 04:50:00,36.7,32.6,30.02,SW,220,0.0,0.0,85,0.00,,,0.01,WeatherCatV1.02B3,2013-02-23 09:50:00,
2013-02-23 04:55:00,36.8,32.7,30.01,SSW,195,0.0,0.0,85,0.00,,,0.01,WeatherCatV1.02B3,2013-02-23 09:55:00,
2013-02-23 05:00:00,37.0,32.9,30.01,SSE,157,2.0,2.0,85,0.00,,,0.01,WeatherCatV1.02B3,2013-02-23 10:00:00,
2013-02-23 05:05:00,37.1,33.0,30.01,SE,144,0.0,3.0,85,0.00,,,0.01,WeatherCatV1.02B3,2013-02-23 10:05:00,
2013-02-23 05:10:00,37.1,33.0,30.01,SE,144,0.0,0.0,85,0.00,,,0.01,WeatherCatV1.02B3,2013-02-23 10:10:00,
2013-02-23 05:15:00,37.2,33.1,30.01,SE,128,0.0,2.0,85,0.00,,,0.01,WeatherCatV1.02B3,2013-02-23 10:15:00,
2013-02-23 05:20:00,37.2,33.1,30.01,ESE,115,2.0,2.0,85,0.00,,,0.01,WeatherCatV1.02B3,2013-02-23 10:20:00,
2013-02-23 05:25:00,37.2,33.1,30.01,ESE,116,2.0,3.0,85,0.00,,,0.01,WeatherCatV1.02B3,2013-02-23 10:25:00,
2013-02-23 05:30:00,37.3,33.2,30.01,ESE,113,0.0,2.0,85,0.00,,,0.01,WeatherCatV1.02B3,2013-02-23 10:30:00,
2013-02-23 05:35:00,37.4,33.3,30.01,SE,129,1.0,5.0,85,0.00,,,0.01,WeatherCatV1.02B3,2013-02-23 10:35:00,
2013-02-23 05:40:00,37.4,33.6,30.01,SE,125,0.0,2.0,86,0.00,,,0.01,WeatherCatV1.02B3,2013-02-23 10:40:00,
2013-02-23 05:45:00,37.4,33.6,30.02,SE,136,3.0,3.0,86,0.00,,,0.01,WeatherCatV1.02B3,2013-02-23 10:45:00,
2013-02-23 05:50:00,37.5,33.7,30.02,SE,132,0.0,0.0,86,0.00,,,0.01,WeatherCatV1.02B3,2013-02-23 10:50:00,
2013-02-23 05:55:00,37.5,33.7,30.01,ESE,116,3.0,6.0,86,0.00,,,0.01,WeatherCatV1.02B3,2013-02-23 10:55:00,
2013-02-23 06:00:00,37.6,33.5,30.02,SE,137,0.0,5.0,85,0.00,,,0.01,WeatherCatV1.02B3,2013-02-23 11:00:00,
2013-02-23 06:05:00,37.5,33.4,30.02,South,177,0.0,5.0,85,0.00,,,0.01,WeatherCatV1.02B3,2013-02-23 11:05:00,
2013-02-23 06:10:00,37.4,33.3,30.02,SE,134,0.0,1.0,85,0.00,,,0.02,WeatherCatV1.02B3,2013-02-23 11:10:00,
2013-02-23 06:15:00,37.3,33.2,30.02,SE,134,0.0,2.0,85,0.00,,,0.02,WeatherCatV1.02B3,2013-02-23 11:15:00,
2013-02-23 06:20:00,37.2,33.1,30.02,SE,133,0.0,1.0,85,0.00,,,0.02,WeatherCatV1.02B3,2013-02-23 11:20:00,
2013-02-23 06:25:00,37.0,32.9,30.01,SE,133,0.0,0.0,85,0.00,,,0.02,WeatherCatV1.02B3,2013-02-23 11:25:00,
2013-02-23 06:30:00,37.0,32.9,30.01,SSE,155,0.0,1.0,85,0.00,,,0.02,WeatherCatV1.02B3,2013-02-23 11:30:00,
2013-02-23 06:35:00,37.0,32.6,30.02,South,183,1.0,4.0,84,0.00,,,0.02,WeatherCatV1.02B3,2013-02-23 11:35:00,
2013-02-23 06:40:00,37.1,32.7,30.02,ESE,103,2.0,3.0,84,0.00,,,0.02,WeatherCatV1.02B3,2013-02-23 11:40:00,
2013-02-23 06:45:00,37.2,32.5,30.02,SW,222,2.0,3.0,83,0.00,,,0.02,WeatherCatV1.02B3,2013-02-23 11:45:00,
2013-02-23 06:50:00,37.4,32.4,30.02,SSW,197,0.0,2.0,82,0.00,,,0.02,WeatherCatV1.02B3,2013-02-23 11:50:00,
2013-02-23 06:55:00,37.4,32.4,30.02,SSE,163,1.0,3.0,82,0.00,,,0.02,WeatherCatV1.02B3,2013-02-23 11:55:00,
2013-02-23 07:00:00,37.6,32.3,30.02,South,184,0.0,0.0,81,0.00,,,0.02,WeatherCatV1.02B3,2013-02-23 12:00:00,
2013-02-23 07:05:00,37.6,32.0,30.01,South,173,3.0,3.0,80,0.00,,,0.02,WeatherCatV1.02B3,2013-02-23 12:05:00,
2013-02-23 07:10:00,37.7,32.1,30.02,SSW,200,0.0,5.0,80,0.00,,,0.02,WeatherCatV1.02B3,2013-02-23 12:10:00,
2013-02-23 07:15:00,37.8,31.9,30.02,SW,221,0.0,4.0,79,0.00,,,0.02,WeatherCatV1.02B3,2013-02-23 12:15:00,
2013-02-23 07:20:00,37.8,31.9,30.01,East,88,1.0,3.0,79,0.00,,,0.02,WeatherCatV1.02B3,2013-02-23 12:20:00,
2013-02-23 07:25:00,37.7,31.8,30.01,SW,215,3.0,3.0,79,0.00,,,0.02,WeatherCatV1.02B3,2013-02-23 12:25:00,
2013-02-23 07:30:00,37.8,31.9,30.01,South,169,0.0,2.0,79,0.00,,,0.02,WeatherCatV1.02B3,2013-02-23 12:30:00,
2013-02-23 07:35:00,37.8,31.9,30.01,SE,125,0.0,1.0,79,0.00,,,0.02,WeatherCatV1.02B3,2013-02-23 12:35:00,
2013-02-23 07:40:00,37.9,32.0,30.02,SE,125,0.0,1.0,79,0.00,,,0.02,WeatherCatV1.02B3,2013-02-23 12:40:00,
2013-02-23 07:45:00,37.9,32.0,30.02,SE,125,0.0,2.0,79,0.00,,,0.02,WeatherCatV1.02B3,2013-02-23 12:45:00,
2013-02-23 07:50:00,38.0,32.1,30.02,SSW,200,0.0,0.0,79,0.00,,,0.02,WeatherCatV1.02B3,2013-02-23 12:50:00,
2013-02-23 07:55:00,38.0,31.8,30.01,SSW,201,0.0,1.0,78,0.00,,,0.02,WeatherCatV1.02B3,2013-02-23 12:55:00,
2013-02-23 08:00:00,38.1,31.9,30.01,SW,218,1.0,3.0,78,0.00,,,0.02,WeatherCatV1.02B3,2013-02-23 13:00:00,
2013-02-23 08:05:00,38.5,31.9,30.01,SSW,196,0.0,3.0,77,0.00,,,0.02,WeatherCatV1.02B3,2013-02-23 13:05:00,
2013-02-23 08:10:00,38.6,31.7,30.01,SSW,205,0.0,6.0,76,0.00,,,0.02,WeatherCatV1.02B3,2013-02-23 13:10:00,
2013-02-23 08:15:00,38.6,31.4,30.01,SSW,198,7.0,7.0,75,0.00,,,0.02,WeatherCatV1.02B3,2013-02-23 13:15:00,
2013-02-23 08:20:00,38.8,31.6,30.01,SSW,192,4.0,5.0,75,0.00,,,0.02,WeatherCatV1.02B3,2013-02-23 13:20:00,
2013-02-23 08:25:00,39.0,31.4,30.01,SSW,194,6.0,8.0,74,0.00,,,0.02,WeatherCatV1.02B3,2013-02-23 13:25:00,
2013-02-23 08:30:00,39.0,31.1,30.02,South,186,4.0,4.0,73,0.00,,,0.02,WeatherCatV1.02B3,2013-02-23 13:30:00,
2013-02-23 08:35:00,39.0,31.1,30.02,South,190,2.0,7.0,73,0.00,,,0.02,WeatherCatV1.02B3,2013-02-23 13:35:00,
2013-02-23 08:40:00,39.0,30.8,30.02,SW,234,6.0,13.0,72,0.00,,,0.02,WeatherCatV1.02B3,2013-02-23 13:40:00,
2013-02-23 08:45:00,38.9,31.0,30.02,West,268,5.0,9.0,73,0.00,,,0.02,WeatherCatV1.02B3,2013-02-23 13:45:00,
2013-02-23 08:50:00,37.1,31.2,30.02,WNW,288,11.0,12.0,79,0.00,,,0.02,WeatherCatV1.02B3,2013-02-23 13:50:00,
2013-02-23 08:55:00,36.1,30.8,30.03,WSW,246,3.0,6.0,81,0.00,,,0.02,WeatherCatV1.02B3,2013-02-23 13:55:00,
2013-02-23 09:00:00,35.7,31.1,30.03,WSW,247,6.0,7.0,83,0.00,,,0.02,WeatherCatV1.02B3,2013-02-23 14:00:00,
2013-02-23 09:05:00,35.6,31.3,30.03,WSW,245,3.0,7.0,84,0.00,,,0.02,WeatherCatV1.02B3,2013-02-23 14:05:00,
2013-02-23 09:10:00,35.6,31.3,30.03,SW,226,5.0,7.0,84,0.00,,,0.02,WeatherCatV1.02B3,2013-02-23 14:10:00,
2013-02-23 09:15:00,35.7,31.1,30.03,West,263,4.0,7.0,83,0.00,,,0.02,WeatherCatV1.02B3,2013-02-23 14:15:00,
2013-02-23 09:20:00,35.6,31.3,30.03,West,265,3.0,8.0,84,0.00,,,0.02,WeatherCatV1.02B3,2013-02-23 14:20:00,
2013-02-23 09:25:00,35.4,31.1,30.03,SW,223,5.0,6.0,84,0.00,,,0.02,WeatherCatV1.02B3,2013-02-23 14:25:00,
2013-02-23 09:30:00,35.4,31.3,30.03,SW,234,4.0,11.0,85,0.00,,,0.02,WeatherCatV1.02B3,2013-02-23 14:30:00,
2013-02-23 09:35:00,35.3,31.2,30.03,SW,215,6.0,6.0,85,0.00,,,0.02,WeatherCatV1.02B3,2013-02-23 14:35:00,
2013-02-23 09:40:00,35.2,31.2,30.03,WSW,245,4.0,6.0,85,0.00,,,0.02,WeatherCatV1.02B3,2013-02-23 14:40:00,
2013-02-23 09:45:00,35.2,31.4,30.03,SW,223,2.0,6.0,86,0.00,,,0.02,WeatherCatV1.02B3,2013-02-23 14:45:00,
2013-02-23 09:50:00,35.2,31.4,30.03,SW,235,5.0,6.0,86,0.00,,,0.02,WeatherCatV1.02B3,2013-02-23 14:50:00,
2013-02-23 09:55:00,35.2,31.4,30.03,SW,225,6.0,7.0,86,0.00,,,0.02,WeatherCatV1.02B3,2013-02-23 14:55:00,
2013-02-23 10:00:00,35.3,31.2,30.03,WSW,246,2.0,5.0,85,0.00,,,0.02,WeatherCatV1.02B3,2013-02-23 15:00:00,
2013-02-23 10:05:00,35.2,31.2,30.03,WSW,238,0.0,3.0,85,0.00,,,0.02,WeatherCatV1.02B3,2013-02-23 15:05:00,
2013-02-23 10:10:00,35.2,30.9,30.03,SW,223,5.0,10.0,84,0.00,,,0.02,WeatherCatV1.02B3,2013-02-23 15:10:00,
2013-02-23 10:15:00,35.2,30.9,30.03,WSW,243,2.0,9.0,84,0.00,,,0.02,WeatherCatV1.02B3,2013-02-23 15:15:00,
2013-02-23 10:20:00,35.1,30.8,30.02,WSW,252,3.0,11.0,84,0.00,,,0.02,WeatherCatV1.02B3,2013-02-23 15:20:00,
2013-02-23 10:25:00,35.2,30.9,30.03,SW,227,1.0,4.0,84,0.00,,,0.02,WeatherCatV1.02B3,2013-02-23 15:25:00,
2013-02-23 10:33:00,35.2,30.9,30.03,WSW,247,0.0,4.0,84,0.00,,,0.02,WeatherCatV1.02B3,2013-02-23 15:33:00,
2013-02-23 10:38:00,35.2,30.9,30.03,WSW,252,2.0,2.0,84,0.00,,,0.02,WeatherCatV1.02B3,2013-02-23 15:38:00,
2013-02-23 10:43:00,35.1,30.8,30.03,SW,234,1.0,4.0,84,0.00,,,0.02,WeatherCatV1.02B3,2013-02-23 15:43:00,
2013-02-23 10:48:00,34.9,30.6,30.03,WSW,244,0.0,4.0,84,0.00,,,0.02,WeatherCatV1.02B3,2013-02-23 15:48:00,
2013-02-23 10:53:00,34.6,30.6,30.03,WSW,242,5.0,9.0,85,0.00,,,0.02,WeatherCatV1.02B3,2013-02-23 15:53:00,
2013-02-23 10:58:00,34.3,30.3,30.04,WSW,251,2.0,9.0,85,0.00,,,0.02,WeatherCatV1.02B3,2013-02-23 15:58:00,
2013-02-23 11:03:00,34.2,30.2,30.04,WNW,298,5.0,5.0,85,0.00,,,0.02,WeatherCatV1.02B3,2013-02-23 16:03:00,
2013-02-23 11:08:00,34.1,30.1,30.04,WSW,244,3.0,13.0,85,0.00,,,0.02,WeatherCatV1.02B3,2013-02-23 16:08:00,
2013-02-23 11:13:00,34.0,30.0,30.04,SW,236,1.0,5.0,85,0.00,,,0.02,WeatherCatV1.02B3,2013-02-23 16:13:00,
2013-02-23 11:18:00,34.0,30.0,30.04,SW,235,4.0,8.0,85,0.00,,,0.02,WeatherCatV1.02B3,2013-02-23 16:18:00,
2013-02-23 11:23:00,33.9,29.9,30.03,SW,226,4.0,9.0,85,0.00,,,0.02,WeatherCatV1.02B3,2013-02-23 16:23:00,
2013-02-23 11:28:00,33.8,29.8,30.04,SW,227,6.0,6.0,85,0.00,,,0.02,WeatherCatV1.02B3,2013-02-23 16:28:00,
2013-02-23 11:33:00,33.7,29.7,30.03,SW,233,0.0,5.0,85,0.00,,,0.02,WeatherCatV1.02B3,2013-02-23 16:33:00,
2013-02-23 11:38:00,33.5,29.8,30.04,WNW,294,2.0,10.0,86,0.00,,,0.02,WeatherCatV1.02B3,2013-02-23 16:38:00,
2013-02-23 11:43:00,33.3,29.3,30.04,SW,229,6.0,7.0,85,0.00,,,0.02,WeatherCatV1.02B3,2013-02-23 16:43:00,
2013-02-23 11:48:00,33.3,29.0,30.04,WSW,250,7.0,11.0,84,0.00,,,0.02,WeatherCatV1.02B3,2013-02-23 16:48:00,
2013-02-23 11:53:00,33.2,27.7,30.04,SW,229,4.0,14.0,80,0.00,,,0.02,WeatherCatV1.02B3,2013-02-23 16:53:00,
2013-02-23 11:58:00,33.3,26.9,30.04,SW,214,7.0,13.0,77,0.00,,,0.02,WeatherCatV1.02B3,2013-02-23 16:58:00,
2013-02-23 12:03:00,33.3,26.2,30.03,SW,227,5.0,13.0,75,0.00,,,0.02,WeatherCatV1.02B3,2013-02-23 17:03:00,
2013-02-23 12:08:00,33.3,26.2,30.03,SSW,202,13.0,13.0,75,0.00,,,0.02,WeatherCatV1.02B3,2013-02-23 17:08:00,
2013-02-23 12:13:00,33.4,26.0,30.03,SW,221,7.0,11.0,74,0.00,,,0.02,WeatherCatV1.02B3,2013-02-23 17:13:00,
2013-02-23 12:18:00,33.5,26.1,30.02,SW,232,5.0,6.0,74,0.00,,,0.02,WeatherCatV1.02B3,2013-02-23 17:18:00,
2013-02-23 12:23:00,33.7,26.0,30.02,West,259,6.0,7.0,73,0.00,,,0.02,WeatherCatV1.02B3,2013-02-23 17:23:00,
2013-02-23 12:28:00,33.8,26.1,30.02,WSW,252,12.0,12.0,73,0.00,,,0.02,WeatherCatV1.02B3,2013-02-23 17:28:00,
2013-02-23 12:33:00,33.8,25.7,30.02,West,274,4.0,9.0,72,0.00,,,0.02,WeatherCatV1.02B3,2013-02-23 17:33:00,
2013-02-23 12:38:00,33.7,25.6,30.02,WSW,239,5.0,7.0,72,0.00,,,0.02,WeatherCatV1.02B3,2013-02-23 17:38:00,
2013-02-23 12:43:00,33.6,25.6,30.02,WSW,253,2.0,6.0,72,0.00,,,0.02,WeatherCatV1.02B3,2013-02-23 17:43:00,
2013-02-23 12:48:00,33.8,25.7,30.02,WSW,249,0.0,5.0,72,0.00,,,0.02,WeatherCatV1.02B3,2013-02-23 17:48:00,
2013-02-23 12:53:00,33.7,25.6,30.01,WSW,244,5.0,7.0,72,0.00,,,0.02,WeatherCatV1.02B3,2013-02-23 17:53:00,
2013-02-23 12:58:00,33.7,25.3,30.01,WSW,252,4.0,5.0,71,0.00,,,0.02,WeatherCatV1.02B3,2013-02-23 17:58:00,
2013-02-23 13:03:00,33.8,25.4,30.01,SW,216,4.0,5.0,71,0.00,,,0.02,WeatherCatV1.02B3,2013-02-23 18:03:00,
2013-02-23 13:08:00,33.8,25.4,30.01,West,268,5.0,8.0,71,0.00,,,0.02,WeatherCatV1.02B3,2013-02-23 18:08:00,
2013-02-23 13:13:00,33.8,25.4,30.01,SW,234,7.0,8.0,71,0.00,,,0.02,WeatherCatV1.02B3,2013-02-23 18:13:00,
2013-02-23 13:18:00,33.9,25.5,30.01,SW,217,6.0,10.0,71,0.00,,,0.02,WeatherCatV1.02B3,2013-02-23 18:18:00,
2013-02-23 13:23:00,33.9,25.8,30.01,WSW,240,3.0,7.0,72,0.00,,,0.02,WeatherCatV1.02B3,2013-02-23 18:23:00,
2013-02-23 13:28:00,33.9,25.8,30.01,WNW,294,3.0,7.0,72,0.00,,,0.02,WeatherCatV1.02B3,2013-02-23 18:28:00,
2013-02-23 13:33:00,33.9,25.8,30.01,WSW,247,7.0,9.0,72,0.00,,,0.02,WeatherCatV1.02B3,2013-02-23 18:33:00,
2013-02-23 13:38:00,33.8,25.4,30.00,West,276,4.0,12.0,71,0.00,,,0.02,WeatherCatV1.02B3,2013-02-23 18:38:00,
2013-02-23 13:43:00,34.2,25.5,30.01,WSW,246,1.0,9.0,70,0.00,,,0.02,WeatherCatV1.02B3,2013-02-23 18:43:00,
2013-02-23 13:48:00,34.4,25.3,30.00,West,273,4.0,10.0,69,0.00,,,0.02,WeatherCatV1.02B3,2013-02-23 18:48:00,
2013-02-23 13:53:00,34.6,25.5,30.00,West,274,5.0,13.0,69,0.00,,,0.02,WeatherCatV1.02B3,2013-02-23 18:53:00,
2013-02-23 13:58:00,34.6,25.5,30.00,NNW,342,4.0,9.0,69,0.00,,,0.02,WeatherCatV1.02B3,2013-02-23 18:58:00,
2013-02-23 14:03:00,34.4,25.3,30.00,WSW,244,5.0,14.0,69,0.00,,,0.02,WeatherCatV1.02B3,2013-02-23 19:03:00,
2013-02-23 14:08:00,34.6,25.8,30.00,NNW,333,5.0,9.0,70,0.00,,,0.02,WeatherCatV1.02B3,2013-02-23 19:08:00,
2013-02-23 14:13:00,34.5,25.4,30.00,West,265,5.0,12.0,69,0.00,,,0.02,WeatherCatV1.02B3,2013-02-23 19:13:00,
2013-02-23 14:18:00,34.8,25.3,30.00,West,263,4.0,11.0,68,0.00,,,0.02,WeatherCatV1.02B3,2013-02-23 19:18:00,
2013-02-23 14:23:00,34.6,25.8,30.00,WNW,283,5.0,10.0,70,0.00,,,0.02,WeatherCatV1.02B3,2013-02-23 19:23:00,
2013-02-23 14:28:00,34.6,26.2,30.00,West,267,5.0,7.0,71,0.00,,,0.02,WeatherCatV1.02B3,2013-02-23 19:28:00,
2013-02-23 14:33:00,34.3,25.5,30.00,West,273,3.0,10.0,70,0.00,,,0.02,WeatherCatV1.02B3,2013-02-23 19:33:00,
2013-02-23 14:38:00,34.2,25.5,30.00,WNW,283,3.0,10.0,70,0.00,,,0.02,WeatherCatV1.02B3,2013-02-23 19:38:00,
2013-02-23 14:43:00,34.4,26.0,30.00,West,269,4.0,5.0,71,0.00,,,0.02,WeatherCatV1.02B3,2013-02-23 19:43:00,
2013-02-23 14:48:00,34.4,26.0,30.00,SW,225,6.0,9.0,71,0.00,,,0.02,WeatherCatV1.02B3,2013-02-23 19:48:00,
2013-02-23 14:53:00,34.2,26.1,30.00,West,271,3.0,11.0,72,0.00,,,0.02,WeatherCatV1.02B3,2013-02-23 19:53:00,
2013-02-23 14:58:00,34.3,26.2,30.00,WSW,258,3.0,10.0,72,0.00,,,0.02,WeatherCatV1.02B3,2013-02-23 19:58:00,
2013-02-23 15:03:00,34.1,26.0,30.00,WNW,298,6.0,11.0,72,0.00,,,0.02,WeatherCatV1.02B3,2013-02-23 20:03:00,
2013-02-23 15:08:00,34.1,26.0,30.01,West,273,4.0,11.0,72,0.00,,,0.02,WeatherCatV1.02B3,2013-02-23 20:08:00,
2013-02-23 15:13:00,34.3,26.6,30.01,WNW,287,3.0,8.0,73,0.00,,,0.02,WeatherCatV1.02B3,2013-02-23 20:13:00,
2013-02-23 15:18:00,34.3,26.6,30.01,WNW,292,3.0,7.0,73,0.00,,,0.02,WeatherCatV1.02B3,2013-02-23 20:18:00,
2013-02-23 15:23:00,34.4,26.7,30.01,West,272,5.0,6.0,73,0.00,,,0.02,WeatherCatV1.02B3,2013-02-23 20:23:00,
2013-02-23 15:28:00,34.5,26.4,30.01,WSW,248,5.0,9.0,72,0.00,,,0.02,WeatherCatV1.02B3,2013-02-23 20:28:00,
2013-02-23 15:33:00,34.8,26.7,30.01,WSW,249,6.0,7.0,72,0.00,,,0.02,WeatherCatV1.02B3,2013-02-23 20:33:00,
2013-02-23 15:38:00,34.5,26.4,30.01,West,264,4.0,6.0,72,0.00,,,0.02,WeatherCatV1.02B3,2013-02-23 20:38:00,
2013-02-23 15:45:00,34.5,26.4,30.01,WSW,242,4.0,11.0,72,0.00,,,0.02,WeatherCatV1.02B3,2013-02-23 20:45:00,
2013-02-23 15:50:00,34.4,26.3,30.01,WNW,298,4.0,6.0,72,0.00,,,0.02,WeatherCatV1.02B3,2013-02-23 20:50:00,
2013-02-23 15:55:00,34.3,26.2,30.01,WNW,294,3.0,8.0,72,0.00,,,0.02,WeatherCatV1.02B3,2013-02-23 20:55:00,
2013-02-23 16:00:00,34.1,26.0,30.01,WNW,298,6.0,7.0,72,0.00,,,0.02,WeatherCatV1.02B3,2013-02-23 21:00:00,
2013-02-23 16:05:00,34.3,26.6,30.00,SW,219,4.0,6.0,73,0.00,,,0.02,WeatherCatV1.02B3,2013-02-23 21:05:00,
2013-02-23 16:10:00,34.6,26.9,30.00,West,276,4.0,7.0,73,0.00,,,0.02,WeatherCatV1.02B3,2013-02-23 21:10:00,
2013-02-23 16:15:00,34.5,26.8,30.00,WSW,254,10.0,10.0,73,0.00,,,0.02,WeatherCatV1.02B3,2013-02-23 21:15:00,
2013-02-23 16:20:00,34.1,26.4,30.00,WSW,239,2.0,7.0,73,0.00,,,0.02,WeatherCatV1.02B3,2013-02-23 21:20:00,
2013-02-23 16:25:00,33.8,26.4,30.00,WSW,254,5.0,5.0,74,0.00,,,0.02,WeatherCatV1.02B3,2013-02-23 21:25:00,
2013-02-23 16:30:00,33.6,26.2,30.00,West,276,0.0,4.0,74,0.00,,,0.02,WeatherCatV1.02B3,2013-02-23 21:30:00,
2013-02-23 16:35:00,33.6,26.5,30.00,West,259,2.0,3.0,75,0.00,,,0.02,WeatherCatV1.02B3,2013-02-23 21:35:00,
2013-02-23 16:40:00,33.6,26.5,30.00,SW,232,1.0,3.0,75,0.00,,,0.02,WeatherCatV1.02B3,2013-02-23 21:40:00,
2013-02-23 16:45:00,33.5,26.4,30.00,WSW,246,3.0,6.0,75,0.00,,,0.02,WeatherCatV1.02B3,2013-02-23 21:45:00,
2013-02-23 16:50:00,33.5,26.4,30.00,WSW,249,5.0,5.0,75,0.00,,,0.02,WeatherCatV1.02B3,2013-02-23 21:50:00,
2013-02-23 16:55:00,33.4,26.3,30.00,WSW,240,2.0,4.0,75,0.00,,,0.02,WeatherCatV1.02B3,2013-02-23 21:55:00,
2013-02-23 17:00:00,33.3,26.2,29.99,West,261,2.0,4.0,75,0.00,,,0.02,WeatherCatV1.02B3,2013-02-23 22:00:00,
2013-02-23 17:05:00,33.2,26.5,30.00,WSW,249,2.0,4.0,76,0.00,,,0.02,WeatherCatV1.02B3,2013-02-23 22:05:00,
2013-02-23 17:10:00,33.1,26.4,30.00,SW,234,4.0,4.0,76,0.00,,,0.02,WeatherCatV1.02B3,2013-02-23 22:10:00,
2013-02-23 17:15:00,33.1,26.4,30.00,WSW,252,0.0,4.0,76,0.00,,,0.02,WeatherCatV1.02B3,2013-02-23 22:15:00,
2013-02-23 17:20:00,33.0,26.6,30.00,WSW,255,4.0,4.0,77,0.00,,,0.02,WeatherCatV1.02B3,2013-02-23 22:20:00,
2013-02-23 17:25:00,33.0,26.6,30.00,WSW,250,0.0,4.0,77,0.00,,,0.02,WeatherCatV1.02B3,2013-02-23 22:25:00,
2013-02-23 17:30:00,32.9,26.5,30.01,WSW,241,4.0,4.0,77,0.00,,,0.02,WeatherCatV1.02B3,2013-02-23 22:30:00,
2013-02-23 17:35:00,32.9,26.5,30.01,West,271,2.0,5.0,77,0.00,,,0.02,WeatherCatV1.02B3,2013-02-23 22:35:00,
2013-02-23 17:40:00,32.8,26.4,30.01,WSW,254,2.0,5.0,77,0.00,,,0.02,WeatherCatV1.02B3,2013-02-23 22:40:00,
2013-02-23 17:45:00,32.8,26.4,30.01,WSW,242,0.0,4.0,77,0.00,,,0.02,WeatherCatV1.02B3,2013-02-23 22:45:00,
2013-02-23 17:50:00,32.8,26.7,30.01,SW,221,2.0,5.0,78,0.00,,,0.02,WeatherCatV1.02B3,2013-02-23 22:50:00,
2013-02-23 17:55:00,32.7,26.6,30.02,West,268,2.0,4.0,78,0.00,,,0.02,WeatherCatV1.02B3,2013-02-23 22:55:00,
2013-02-23 18:00:00,32.7,26.6,30.02,West,275,1.0,4.0,78,0.00,,,0.02,WeatherCatV1.02B3,2013-02-23 23:00:00,
2013-02-23 18:05:00,32.7,26.9,30.01,West,272,1.0,2.0,79,0.00,,,0.02,WeatherCatV1.02B3,2013-02-23 23:05:00,
2013-02-23 18:10:00,32.7,26.9,30.02,WSW,246,2.0,4.0,79,0.00,,,0.02,WeatherCatV1.02B3,2013-02-23 23:10:00,
2013-02-23 18:15:00,32.6,26.8,30.02,WNW,288,2.0,3.0,79,0.00,,,0.02,WeatherCatV1.02B3,2013-02-23 23:15:00,
2013-02-23 18:20:00,32.7,26.9,30.01,West,277,0.0,2.0,79,0.00,,,0.02,WeatherCatV1.02B3,2013-02-23 23:20:00,
2013-02-23 18:25:00,32.6,26.8,30.02,SW,219,0.0,4.0,79,0.00,,,0.02,WeatherCatV1.02B3,2013-02-23 23:25:00,
2013-02-23 18:30:00,32.6,26.8,30.02,West,264,0.0,2.0,79,0.00,,,0.02,WeatherCatV1.02B3,2013-02-23 23:30:00,
2013-02-23 18:35:00,32.6,26.8,30.02,SW,221,2.0,3.0,79,0.00,,,0.02,WeatherCatV1.02B3,2013-02-23 23:35:00,
2013-02-23 18:40:00,32.6,26.8,30.02,West,279,0.0,4.0,79,0.00,,,0.02,WeatherCatV1.02B3,2013-02-23 23:40:00,
2013-02-23 18:45:00,32.6,27.1,30.03,West,274,0.0,0.0,80,0.00,,,0.02,WeatherCatV1.02B3,2013-02-23 23:45:00,
2013-02-23 18:50:00,32.6,27.1,30.02,SW,227,1.0,1.0,80,0.00,,,0.02,WeatherCatV1.02B3,2013-02-23 23:50:00,
2013-02-23 18:55:00,32.6,27.1,30.02,WSW,256,0.0,0.0,80,0.00,,,0.02,WeatherCatV1.02B3,2013-02-23 23:55:00,
2013-02-23 19:00:00,32.6,27.1,30.02,SW,222,2.0,4.0,80,0.00,,,0.02,WeatherCatV1.02B3,2013-02-24 00:00:00,
2013-02-23 19:05:00,32.6,27.1,30.02,WSW,242,2.0,4.0,80,0.00,,,0.02,WeatherCatV1.02B3,2013-02-24 00:05:00,
2013-02-23 19:10:00,32.6,27.1,30.02,West,266,4.0,4.0,80,0.00,,,0.02,WeatherCatV1.02B3,2013-02-24 00:10:00,
2013-02-23 19:15:00,32.6,27.1,30.02,West,265,3.0,4.0,80,0.00,,,0.02,WeatherCatV1.02B3,2013-02-24 00:15:00,
2013-02-23 19:20:00,32.6,26.8,30.02,WSW,238,0.0,0.0,79,0.00,,,0.02,WeatherCatV1.02B3,2013-02-24 00:20:00,
2013-02-23 19:25:00,32.6,26.8,30.02,West,271,0.0,2.0,79,0.00,,,0.02,WeatherCatV1.02B3,2013-02-24 00:25:00,
2013-02-23 19:30:00,32.6,26.8,30.02,West,268,0.0,1.0,79,0.00,,,0.02,WeatherCatV1.02B3,2013-02-24 00:30:00,
2013-02-23 19:35:00,32.6,26.8,30.02,WSW,249,0.0,3.0,79,0.00,,,0.02,WeatherCatV1.02B3,2013-02-24 00:35:00,
2013-02-23 19:40:00,32.6,26.8,30.03,WSW,253,2.0,5.0,79,0.00,,,0.02,WeatherCatV1.02B3,2013-02-24 00:40:00,
2013-02-23 19:45:00,32.6,26.8,30.03,WSW,244,2.0,4.0,79,0.00,,,0.02,WeatherCatV1.02B3,2013-02-24 00:45:00,
2013-02-23 19:50:00,32.5,27.0,30.02,SW,225,0.0,3.0,80,0.00,,,0.02,WeatherCatV1.02B3,2013-02-24 00:50:00,
2013-02-23 19:55:00,32.6,27.1,30.02,WSW,254,2.0,3.0,80,0.00,,,0.02,WeatherCatV1.02B3,2013-02-24 00:55:00,
2013-02-23 20:00:00,32.5,27.0,30.02,WSW,252,0.0,4.0,80,0.00,,,0.02,WeatherCatV1.02B3,2013-02-24 01:00:00,
2013-02-23 20:05:00,32.5,27.0,30.02,WSW,256,0.0,3.0,80,0.00,,,0.02,WeatherCatV1.02B3,2013-02-24 01:05:00,
2013-02-23 20:10:00,32.5,27.0,30.02,West,261,0.0,3.0,80,0.00,,,0.02,WeatherCatV1.02B3,2013-02-24 01:10:00,
2013-02-23 20:15:00,32.5,27.0,30.02,West,279,0.0,1.0,80,0.00,,,0.02,WeatherCatV1.02B3,2013-02-24 01:15:00,
2013-02-23 20:20:00,32.5,27.0,30.02,West,264,3.0,3.0,80,0.00,,,0.02,WeatherCatV1.02B3,2013-02-24 01:20:00,
2013-02-23 20:26:00,32.4,26.9,30.02,WSW,256,2.0,5.0,80,0.00,,,0.02,WeatherCatV1.02B3,2013-02-24 01:26:00,
2013-02-23 20:31:00,32.4,26.6,30.02,SW,229,2.0,2.0,79,0.00,,,0.02,WeatherCatV1.02B3,2013-02-24 01:31:00,
2013-02-23 20:36:00,32.4,26.6,30.01,SW,232,0.0,2.0,79,0.00,,,0.02,WeatherCatV1.02B3,2013-02-24 01:36:00,
2013-02-23 20:41:00,32.4,26.6,30.01,WSW,256,0.0,2.0,79,0.00,,,0.02,WeatherCatV1.02B3,2013-02-24 01:41:00,
2013-02-23 20:46:00,32.4,26.6,30.02,SW,224,0.0,4.0,79,0.00,,,0.02,WeatherCatV1.02B3,2013-02-24 01:46:00,
2013-02-23 20:51:00,32.4,26.6,30.02,WSW,250,0.0,4.0,79,0.00,,,0.02,WeatherCatV1.02B3,2013-02-24 01:51:00,
2013-02-23 20:56:00,32.4,26.6,30.01,WSW,257,0.0,0.0,79,0.00,,,0.02,WeatherCatV1.02B3,2013-02-24 01:56:00,
2013-02-23 21:01:00,32.4,26.6,30.01,WSW,254,0.0,0.0,79,0.00,,,0.02,WeatherCatV1.02B3,2013-02-24 02:01:00,
2013-02-23 21:06:00,32.4,26.6,30.01,WSW,257,0.0,1.0,79,0.00,,,0.02,WeatherCatV1.02B3,2013-02-24 02:06:00,
2013-02-23 21:11:00,32.4,26.6,30.02,West,268,0.0,5.0,79,0.00,,,0.02,WeatherCatV1.02B3,2013-02-24 02:11:00,
2013-02-23 21:16:00,32.4,26.6,30.02,WSW,258,2.0,3.0,79,0.00,,,0.02,WeatherCatV1.02B3,2013-02-24 02:16:00,
2013-02-23 21:21:00,32.4,26.6,30.02,WSW,240,0.0,0.0,79,0.00,,,0.02,WeatherCatV1.02B3,2013-02-24 02:21:00,
2013-02-23 21:26:00,32.4,26.6,30.02,SW,220,0.0,4.0,79,0.00,,,0.02,WeatherCatV1.02B3,2013-02-24 02:26:00,
2013-02-23 21:31:00,32.4,26.6,30.02,SW,229,2.0,4.0,79,0.00,,,0.02,WeatherCatV1.02B3,2013-02-24 02:31:00,
2013-02-23 21:36:00,32.4,26.6,30.02,West,259,0.0,0.0,79,0.00,,,0.02,WeatherCatV1.02B3,2013-02-24 02:36:00,
2013-02-23 21:41:00,32.4,26.6,30.02,WSW,243,1.0,3.0,79,0.00,,,0.02,WeatherCatV1.02B3,2013-02-24 02:41:00,
2013-02-23 21:46:00,32.4,26.6,30.02,West,269,1.0,3.0,79,0.00,,,0.02,WeatherCatV1.02B3,2013-02-24 02:46:00,
2013-02-23 21:51:00,32.4,26.6,30.02,SW,232,1.0,3.0,79,0.00,,,0.02,WeatherCatV1.02B3,2013-02-24 02:51:00,
2013-02-23 21:56:00,32.4,26.6,30.02,WSW,250,1.0,4.0,79,0.00,,,0.02,WeatherCatV1.02B3,2013-02-24 02:56:00,
2013-02-23 22:01:00,32.4,26.3,30.01,West,264,0.0,3.0,78,0.00,,,0.02,WeatherCatV1.02B3,2013-02-24 03:01:00,
2013-02-23 22:06:00,32.4,26.3,30.02,West,273,0.0,5.0,78,0.00,,,0.02,WeatherCatV1.02B3,2013-02-24 03:06:00,
2013-02-23 22:11:00,32.4,26.6,30.02,SW,236,3.0,5.0,79,0.00,,,0.02,WeatherCatV1.02B3,2013-02-24 03:11:00,
2013-02-23 22:16:00,32.3,26.2,30.02,SW,228,2.0,3.0,78,0.00,,,0.02,WeatherCatV1.02B3,2013-02-24 03:16:00,
2013-02-23 22:21:00,32.3,26.2,30.01,West,270,2.0,4.0,78,0.00,,,0.02,WeatherCatV1.02B3,2013-02-24 03:21:00,
2013-02-23 22:26:00,32.2,26.1,30.01,West,262,0.0,7.0,78,0.00,,,0.02,WeatherCatV1.02B3,2013-02-24 03:26:00,
2013-02-23 22:31:00,32.2,26.1,30.01,West,264,1.0,5.0,78,0.00,,,0.02,WeatherCatV1.02B3,2013-02-24 03:31:00,
2013-02-23 22:36:00,32.2,25.8,30.01,SW,234,0.0,2.0,77,0.00,,,0.02,WeatherCatV1.02B3,2013-02-24 03:36:00,
2013-02-23 22:41:00,32.2,25.8,30.01,SW,221,4.0,4.0,77,0.00,,,0.02,WeatherCatV1.02B3,2013-02-24 03:41:00,
2013-02-23 22:46:00,32.2,25.8,30.01,SW,226,4.0,6.0,77,0.00,,,0.02,WeatherCatV1.02B3,2013-02-24 03:46:00,
2013-02-23 22:51:00,32.2,26.1,30.00,SW,227,1.0,2.0,78,0.00,,,0.02,WeatherCatV1.02B3,2013-02-24 03:51:00,
2013-02-23 22:56:00,32.2,26.1,30.00,SW,225,2.0,6.0,78,0.00,,,0.02,WeatherCatV1.02B3,2013-02-24 03:56:00,
2013-02-23 23:01:00,32.2,26.1,30.00,SW,224,0.0,4.0,78,0.00,,,0.02,WeatherCatV1.02B3,2013-02-24 04:01:00,
2013-02-23 23:06:00,32.1,26.0,30.00,WSW,242,0.0,0.0,78,0.00,,,0.02,WeatherCatV1.02B3,2013-02-24 04:06:00,
2013-02-23 23:11:00,32.1,26.0,30.00,West,265,0.0,2.0,78,0.00,,,0.02,WeatherCatV1.02B3,2013-02-24 04:11:00,
2013-02-23 23:16:00,32.1,26.0,30.00,WSW,252,1.0,3.0,78,0.00,,,0.02,WeatherCatV1.02B3,2013-02-24 04:16:00,
2013-02-23 23:21:00,32.1,26.0,29.99,SW,234,0.0,0.0,78,0.00,,,0.02,WeatherCatV1.02B3,2013-02-24 04:21:00,
2013-02-23 23:26:00,32.1,26.0,29.99,WSW,249,0.0,0.0,78,0.00,,,0.02,WeatherCatV1.02B3,2013-02-24 04:26:00,
2013-02-23 23:31:00,32.1,26.0,29.99,SW,227,3.0,3.0,78,0.00,,,0.02,WeatherCatV1.02B3,2013-02-24 04:31:00,
2013-02-23 23:36:00,32.1,26.0,29.99,SW,229,0.0,5.0,78,0.00,,,0.02,WeatherCatV1.02B3,2013-02-24 04:36:00,
2013-02-23 23:41:00,32.1,26.0,29.99,SW,223,1.0,5.0,78,0.00,,,0.02,WeatherCatV1.02B3,2013-02-24 04:41:00,
2013-02-23 23:46:00,32.1,26.0,29.99,SW,221,0.0,0.0,78,0.00,,,0.02,WeatherCatV1.02B3,2013-02-24 04:46:00,
2013-02-23 23:51:00,32.1,26.0,29.98,SSW,205,0.0,4.0,78,0.00,,,0.02,WeatherCatV1.02B3,2013-02-24 04:51:00,
2013-02-23 23:56:00,32.1,26.0,29.99,WSW,253,0.0,0.0,78,0.00,,,0.02,WeatherCatV1.02B3,2013-02-24 04:56:00,